sensor_id;sensor_type;location;lat;lon;timestamp;P1;durP1;ratioP1;P2;durP2;ratioP2
9374;SDS011;4727;51.202;6.344;2023-08-08T00:00:03;1.47;;;1.37;;
9374;SDS011;4727;51.202;6.344;2023-08-08T00:02:29;1.87;;;1.77;;
9374;SDS011;4727;51.202;6.344;2023-08-08T00:04:55;1.77;;;1.67;;
9374;SDS011;4727;51.202;6.344;2023-08-08T00:07:20;1.93;;;1.83;;
9374;SDS011;4727;51.202;6.344;2023-08-08T00:09:46;1.73;;;1.63;;
9374;SDS011;4727;51.202;6.344;2023-08-08T00:12:12;2.27;;;1.80;;
9374;SDS011;4727;51.202;6.344;2023-08-08T00:14:37;4.67;;;2.10;;
9374;SDS011;4727;51.202;6.344;2023-08-08T00:17:03;1.87;;;1.77;;
9374;SDS011;4727;51.202;6.344;2023-08-08T00:19:28;3.57;;;2.23;;
9374;SDS011;4727;51.202;6.344;2023-08-08T00:21:54;1.93;;;1.83;;
9374;SDS011;4727;51.202;6.344;2023-08-08T00:24:20;2.43;;;2.23;;
9374;SDS011;4727;51.202;6.344;2023-08-08T00:26:45;2.80;;;1.93;;
9374;SDS011;4727;51.202;6.344;2023-08-08T00:29:11;4.23;;;2.07;;
9374;SDS011;4727;51.202;6.344;2023-08-08T00:31:36;1.77;;;1.67;;
9374;SDS011;4727;51.202;6.344;2023-08-08T00:34:02;2.23;;;2.07;;
9374;SDS011;4727;51.202;6.344;2023-08-08T00:36:28;2.77;;;2.40;;
9374;SDS011;4727;51.202;6.344;2023-08-08T00:38:53;2.63;;;1.93;;
9374;SDS011;4727;51.202;6.344;2023-08-08T00:41:19;2.43;;;2.23;;
9374;SDS011;4727;51.202;6.344;2023-08-08T00:43:44;2.50;;;2.30;;
9374;SDS011;4727;51.202;6.344;2023-08-08T00:46:10;1.63;;;1.53;;
9374;SDS011;4727;51.202;6.344;2023-08-08T00:48:36;2.50;;;2.30;;
9374;SDS011;4727;51.202;6.344;2023-08-08T00:51:02;3.10;;;1.67;;
9374;SDS011;4727;51.202;6.344;2023-08-08T00:53:28;1.93;;;1.83;;
9374;SDS011;4727;51.202;6.344;2023-08-08T00:55:56;2.27;;;2.07;;
9374;SDS011;4727;51.202;6.344;2023-08-08T00:58:23;3.20;;;1.70;;
9374;SDS011;4727;51.202;6.344;2023-08-08T01:00:49;2.43;;;2.20;;
9374;SDS011;4727;51.202;6.344;2023-08-08T01:03:15;2.00;;;1.90;;
9374;SDS011;4727;51.202;6.344;2023-08-08T01:05:46;2.50;;;2.17;;
9374;SDS011;4727;51.202;6.344;2023-08-08T01:08:16;2.50;;;2.03;;
9374;SDS011;4727;51.202;6.344;2023-08-08T01:10:47;1.83;;;1.70;;
9374;SDS011;4727;51.202;6.344;2023-08-08T01:13:14;1.63;;;1.53;;
9374;SDS011;4727;51.202;6.344;2023-08-08T01:15:45;3.33;;;1.87;;
9374;SDS011;4727;51.202;6.344;2023-08-08T01:18:12;3.90;;;2.23;;
9374;SDS011;4727;51.202;6.344;2023-08-08T01:20:39;2.10;;;2.00;;
9374;SDS011;4727;51.202;6.344;2023-08-08T01:23:14;2.30;;;2.20;;
9374;SDS011;4727;51.202;6.344;2023-08-08T01:25:48;2.70;;;2.50;;
9374;SDS011;4727;51.202;6.344;2023-08-08T01:28:14;2.73;;;2.53;;
9374;SDS011;4727;51.202;6.344;2023-08-08T01:30:40;1.90;;;1.80;;
9374;SDS011;4727;51.202;6.344;2023-08-08T01:33:07;3.00;;;1.47;;
9374;SDS011;4727;51.202;6.344;2023-08-08T01:35:34;1.87;;;1.77;;
9374;SDS011;4727;51.202;6.344;2023-08-08T01:41:00;2.50;;;1.67;;
9374;SDS011;4727;51.202;6.344;2023-08-08T01:43:29;3.20;;;1.83;;
9374;SDS011;4727;51.202;6.344;2023-08-08T01:45:56;1.70;;;1.60;;
9374;SDS011;4727;51.202;6.344;2023-08-08T01:48:22;4.00;;;2.37;;
9374;SDS011;4727;51.202;6.344;2023-08-08T01:50:48;2.30;;;2.10;;
9374;SDS011;4727;51.202;6.344;2023-08-08T01:53:13;1.90;;;1.80;;
9374;SDS011;4727;51.202;6.344;2023-08-08T01:55:39;2.03;;;1.90;;
9374;SDS011;4727;51.202;6.344;2023-08-08T01:58:04;4.50;;;1.90;;
9374;SDS011;4727;51.202;6.344;2023-08-08T02:00:31;5.30;;;1.90;;
9374;SDS011;4727;51.202;6.344;2023-08-08T02:02:56;2.17;;;2.07;;
9374;SDS011;4727;51.202;6.344;2023-08-08T02:05:23;2.20;;;2.10;;
9374;SDS011;4727;51.202;6.344;2023-08-08T02:07:49;1.60;;;1.50;;
9374;SDS011;4727;51.202;6.344;2023-08-08T02:10:14;2.23;;;2.13;;
9374;SDS011;4727;51.202;6.344;2023-08-08T02:12:40;1.63;;;1.53;;
9374;SDS011;4727;51.202;6.344;2023-08-08T02:15:06;2.23;;;2.03;;
9374;SDS011;4727;51.202;6.344;2023-08-08T02:17:31;3.67;;;1.60;;
9374;SDS011;4727;51.202;6.344;2023-08-08T02:19:57;2.10;;;2.00;;
9374;SDS011;4727;51.202;6.344;2023-08-08T02:22:23;2.10;;;1.90;;
9374;SDS011;4727;51.202;6.344;2023-08-08T02:24:48;2.80;;;2.00;;
9374;SDS011;4727;51.202;6.344;2023-08-08T02:27:14;1.80;;;1.70;;
9374;SDS011;4727;51.202;6.344;2023-08-08T02:29:39;1.90;;;1.80;;
9374;SDS011;4727;51.202;6.344;2023-08-08T02:32:05;1.50;;;1.43;;
9374;SDS011;4727;51.202;6.344;2023-08-08T02:34:31;3.07;;;1.80;;
9374;SDS011;4727;51.202;6.344;2023-08-08T02:36:56;3.73;;;2.17;;
9374;SDS011;4727;51.202;6.344;2023-08-08T02:39:22;2.53;;;2.33;;
9374;SDS011;4727;51.202;6.344;2023-08-08T02:41:47;2.23;;;2.00;;
9374;SDS011;4727;51.202;6.344;2023-08-08T02:44:13;2.30;;;2.03;;
9374;SDS011;4727;51.202;6.344;2023-08-08T02:46:39;2.10;;;1.87;;
9374;SDS011;4727;51.202;6.344;2023-08-08T02:49:04;2.20;;;2.00;;
9374;SDS011;4727;51.202;6.344;2023-08-08T02:51:30;3.43;;;2.07;;
9374;SDS011;4727;51.202;6.344;2023-08-08T02:53:55;1.70;;;1.60;;
9374;SDS011;4727;51.202;6.344;2023-08-08T02:56:21;1.83;;;1.73;;
9374;SDS011;4727;51.202;6.344;2023-08-08T02:58:47;2.60;;;2.40;;
9374;SDS011;4727;51.202;6.344;2023-08-08T03:01:12;1.80;;;1.03;;
9374;SDS011;4727;51.202;6.344;2023-08-08T03:03:40;3.40;;;2.00;;
9374;SDS011;4727;51.202;6.344;2023-08-08T03:06:05;2.20;;;1.93;;
9374;SDS011;4727;51.202;6.344;2023-08-08T03:08:31;3.77;;;2.13;;
9374;SDS011;4727;51.202;6.344;2023-08-08T03:10:56;5.90;;;2.10;;
9374;SDS011;4727;51.202;6.344;2023-08-08T03:13:22;2.67;;;2.47;;
9374;SDS011;4727;51.202;6.344;2023-08-08T03:15:48;4.53;;;2.40;;
9374;SDS011;4727;51.202;6.344;2023-08-08T03:18:13;2.90;;;1.63;;
9374;SDS011;4727;51.202;6.344;2023-08-08T03:20:39;3.20;;;2.17;;
9374;SDS011;4727;51.202;6.344;2023-08-08T03:23:05;2.13;;;1.93;;
9374;SDS011;4727;51.202;6.344;2023-08-08T03:25:30;4.63;;;2.37;;
9374;SDS011;4727;51.202;6.344;2023-08-08T03:27:56;1.90;;;1.70;;
9374;SDS011;4727;51.202;6.344;2023-08-08T03:30:21;3.47;;;2.27;;
9374;SDS011;4727;51.202;6.344;2023-08-08T03:32:47;2.33;;;2.23;;
9374;SDS011;4727;51.202;6.344;2023-08-08T03:35:13;1.67;;;1.57;;
9374;SDS011;4727;51.202;6.344;2023-08-08T03:37:39;2.03;;;1.93;;
9374;SDS011;4727;51.202;6.344;2023-08-08T03:40:06;2.53;;;2.23;;
9374;SDS011;4727;51.202;6.344;2023-08-08T03:42:32;2.07;;;1.93;;
9374;SDS011;4727;51.202;6.344;2023-08-08T03:44:58;2.13;;;1.93;;
9374;SDS011;4727;51.202;6.344;2023-08-08T03:47:24;2.97;;;2.53;;
9374;SDS011;4727;51.202;6.344;2023-08-08T03:49:50;2.83;;;2.17;;
9374;SDS011;4727;51.202;6.344;2023-08-08T03:52:15;4.53;;;2.20;;
9374;SDS011;4727;51.202;6.344;2023-08-08T03:54:41;4.43;;;2.17;;
9374;SDS011;4727;51.202;6.344;2023-08-08T03:57:07;2.27;;;2.13;;
9374;SDS011;4727;51.202;6.344;2023-08-08T03:59:33;2.07;;;1.97;;
9374;SDS011;4727;51.202;6.344;2023-08-08T04:01:58;6.60;;;2.90;;
9374;SDS011;4727;51.202;6.344;2023-08-08T04:04:24;3.83;;;2.37;;
9374;SDS011;4727;51.202;6.344;2023-08-08T04:06:50;5.33;;;2.10;;
9374;SDS011;4727;51.202;6.344;2023-08-08T04:09:15;2.57;;;2.13;;
9374;SDS011;4727;51.202;6.344;2023-08-08T04:11:41;3.17;;;2.47;;
9374;SDS011;4727;51.202;6.344;2023-08-08T04:14:06;2.23;;;2.07;;
9374;SDS011;4727;51.202;6.344;2023-08-08T04:16:34;3.37;;;2.20;;
9374;SDS011;4727;51.202;6.344;2023-08-08T04:18:59;5.00;;;2.87;;
9374;SDS011;4727;51.202;6.344;2023-08-08T04:21:28;3.47;;;2.60;;
9374;SDS011;4727;51.202;6.344;2023-08-08T04:23:57;2.03;;;1.93;;
9374;SDS011;4727;51.202;6.344;2023-08-08T04:26:23;2.80;;;2.20;;
9374;SDS011;4727;51.202;6.344;2023-08-08T04:28:48;4.80;;;2.80;;
9374;SDS011;4727;51.202;6.344;2023-08-08T04:31:14;5.77;;;2.60;;
9374;SDS011;4727;51.202;6.344;2023-08-08T04:33:39;1.93;;;1.83;;
9374;SDS011;4727;51.202;6.344;2023-08-08T04:36:05;2.00;;;1.90;;
9374;SDS011;4727;51.202;6.344;2023-08-08T04:38:30;3.33;;;2.47;;
9374;SDS011;4727;51.202;6.344;2023-08-08T04:40:56;4.93;;;2.87;;
9374;SDS011;4727;51.202;6.344;2023-08-08T04:43:21;3.57;;;2.27;;
9374;SDS011;4727;51.202;6.344;2023-08-08T04:45:47;4.03;;;2.43;;
9374;SDS011;4727;51.202;6.344;2023-08-08T04:48:13;5.63;;;2.57;;
9374;SDS011;4727;51.202;6.344;2023-08-08T04:50:38;5.77;;;2.53;;
9374;SDS011;4727;51.202;6.344;2023-08-08T04:53:05;3.77;;;2.97;;
9374;SDS011;4727;51.202;6.344;2023-08-08T04:55:31;3.33;;;2.30;;
9374;SDS011;4727;51.202;6.344;2023-08-08T04:57:57;5.27;;;2.90;;
9374;SDS011;4727;51.202;6.344;2023-08-08T05:00:22;2.50;;;2.30;;
9374;SDS011;4727;51.202;6.344;2023-08-08T05:02:48;5.90;;;3.23;;
9374;SDS011;4727;51.202;6.344;2023-08-08T05:05:13;2.90;;;2.63;;
9374;SDS011;4727;51.202;6.344;2023-08-08T05:07:39;4.83;;;2.70;;
9374;SDS011;4727;51.202;6.344;2023-08-08T05:10:06;3.43;;;2.83;;
9374;SDS011;4727;51.202;6.344;2023-08-08T05:12:31;7.10;;;2.63;;
9374;SDS011;4727;51.202;6.344;2023-08-08T05:14:57;3.03;;;2.77;;
9374;SDS011;4727;51.202;6.344;2023-08-08T05:17:22;5.20;;;2.83;;
9374;SDS011;4727;51.202;6.344;2023-08-08T05:19:48;8.30;;;2.80;;
9374;SDS011;4727;51.202;6.344;2023-08-08T05:22:14;6.43;;;2.87;;
9374;SDS011;4727;51.202;6.344;2023-08-08T05:24:39;3.03;;;2.77;;
9374;SDS011;4727;51.202;6.344;2023-08-08T05:27:05;5.67;;;3.10;;
9374;SDS011;4727;51.202;6.344;2023-08-08T05:29:30;4.83;;;2.70;;
9374;SDS011;4727;51.202;6.344;2023-08-08T05:31:56;5.70;;;2.77;;
9374;SDS011;4727;51.202;6.344;2023-08-08T05:34:23;6.33;;;2.90;;
9374;SDS011;4727;51.202;6.344;2023-08-08T05:36:49;4.70;;;3.00;;
9374;SDS011;4727;51.202;6.344;2023-08-08T05:39:15;5.57;;;2.40;;
9374;SDS011;4727;51.202;6.344;2023-08-08T05:41:40;6.60;;;3.00;;
9374;SDS011;4727;51.202;6.344;2023-08-08T05:44:06;7.07;;;2.87;;
9374;SDS011;4727;51.202;6.344;2023-08-08T05:46:37;5.63;;;3.10;;
9374;SDS011;4727;51.202;6.344;2023-08-08T05:49:02;3.07;;;2.47;;
9374;SDS011;4727;51.202;6.344;2023-08-08T05:51:28;5.00;;;2.37;;
9374;SDS011;4727;51.202;6.344;2023-08-08T05:54:00;3.67;;;2.87;;
9374;SDS011;4727;51.202;6.344;2023-08-08T05:56:33;3.73;;;3.20;;
9374;SDS011;4727;51.202;6.344;2023-08-08T05:59:08;6.90;;;2.20;;
9374;SDS011;4727;51.202;6.344;2023-08-08T06:01:34;5.23;;;2.87;;
9374;SDS011;4727;51.202;6.344;2023-08-08T06:04:00;6.50;;;2.20;;
9374;SDS011;4727;51.202;6.344;2023-08-08T06:06:29;2.27;;;2.07;;
9374;SDS011;4727;51.202;6.344;2023-08-08T06:08:54;5.07;;;2.70;;
9374;SDS011;4727;51.202;6.344;2023-08-08T06:11:20;3.20;;;2.90;;
9374;SDS011;4727;51.202;6.344;2023-08-08T06:13:47;2.37;;;2.27;;
9374;SDS011;4727;51.202;6.344;2023-08-08T06:16:13;3.13;;;2.83;;
9374;SDS011;4727;51.202;6.344;2023-08-08T06:18:45;5.53;;;2.47;;
9374;SDS011;4727;51.202;6.344;2023-08-08T06:21:14;2.67;;;2.47;;
9374;SDS011;4727;51.202;6.344;2023-08-08T06:23:39;4.67;;;2.50;;
9374;SDS011;4727;51.202;6.344;2023-08-08T06:26:05;5.93;;;2.60;;
9374;SDS011;4727;51.202;6.344;2023-08-08T06:28:31;4.37;;;3.20;;
9374;SDS011;4727;51.202;6.344;2023-08-08T06:31:00;3.57;;;2.40;;
9374;SDS011;4727;51.202;6.344;2023-08-08T06:33:28;3.77;;;3.03;;
9374;SDS011;4727;51.202;6.344;2023-08-08T06:35:59;2.83;;;2.63;;
9374;SDS011;4727;51.202;6.344;2023-08-08T06:38:27;7.53;;;2.80;;
9374;SDS011;4727;51.202;6.344;2023-08-08T06:40:56;3.67;;;2.53;;
9374;SDS011;4727;51.202;6.344;2023-08-08T06:43:27;4.03;;;2.80;;
9374;SDS011;4727;51.202;6.344;2023-08-08T06:45:55;2.30;;;2.10;;
9374;SDS011;4727;51.202;6.344;2023-08-08T06:48:22;3.40;;;2.23;;
9374;SDS011;4727;51.202;6.344;2023-08-08T06:50:50;3.33;;;2.70;;
9374;SDS011;4727;51.202;6.344;2023-08-08T06:53:18;4.70;;;2.93;;
9374;SDS011;4727;51.202;6.344;2023-08-08T06:55:44;3.17;;;2.50;;
9374;SDS011;4727;51.202;6.344;2023-08-08T06:58:10;4.37;;;3.27;;
9374;SDS011;4727;51.202;6.344;2023-08-08T07:00:45;6.67;;;3.10;;
9374;SDS011;4727;51.202;6.344;2023-08-08T07:03:13;6.83;;;2.90;;
9374;SDS011;4727;51.202;6.344;2023-08-08T07:05:39;3.30;;;3.00;;
9374;SDS011;4727;51.202;6.344;2023-08-08T07:08:19;4.17;;;2.70;;
9374;SDS011;4727;51.202;6.344;2023-08-08T07:10:45;3.43;;;2.47;;
9374;SDS011;4727;51.202;6.344;2023-08-08T07:13:13;3.00;;;2.70;;
9374;SDS011;4727;51.202;6.344;2023-08-08T07:18:21;2.63;;;2.43;;
9374;SDS011;4727;51.202;6.344;2023-08-08T07:20:47;3.13;;;2.07;;
9374;SDS011;4727;51.202;6.344;2023-08-08T07:23:12;4.93;;;2.43;;
9374;SDS011;4727;51.202;6.344;2023-08-08T07:25:38;5.27;;;3.27;;
9374;SDS011;4727;51.202;6.344;2023-08-08T07:28:03;2.80;;;2.60;;
9374;SDS011;4727;51.202;6.344;2023-08-08T07:30:29;3.03;;;2.43;;
9374;SDS011;4727;51.202;6.344;2023-08-08T07:32:55;7.43;;;3.43;;
9374;SDS011;4727;51.202;6.344;2023-08-08T07:35:20;4.40;;;2.30;;
9374;SDS011;4727;51.202;6.344;2023-08-08T07:37:46;2.50;;;2.30;;
9374;SDS011;4727;51.202;6.344;2023-08-08T07:40:15;2.47;;;2.27;;
9374;SDS011;4727;51.202;6.344;2023-08-08T07:42:48;3.17;;;2.23;;
9374;SDS011;4727;51.202;6.344;2023-08-08T07:45:14;2.57;;;2.37;;
9374;SDS011;4727;51.202;6.344;2023-08-08T07:47:40;4.07;;;2.40;;
9374;SDS011;4727;51.202;6.344;2023-08-08T07:50:06;3.57;;;3.00;;
9374;SDS011;4727;51.202;6.344;2023-08-08T07:52:35;3.20;;;2.33;;
9374;SDS011;4727;51.202;6.344;2023-08-08T07:55:02;2.17;;;2.00;;
9374;SDS011;4727;51.202;6.344;2023-08-08T07:57:28;2.40;;;2.30;;
9374;SDS011;4727;51.202;6.344;2023-08-08T07:59:55;2.40;;;2.20;;
9374;SDS011;4727;51.202;6.344;2023-08-08T08:02:21;3.07;;;2.80;;
9374;SDS011;4727;51.202;6.344;2023-08-08T08:04:46;2.47;;;2.23;;
9374;SDS011;4727;51.202;6.344;2023-08-08T08:07:12;3.73;;;2.67;;
9374;SDS011;4727;51.202;6.344;2023-08-08T08:09:38;4.10;;;2.60;;
9374;SDS011;4727;51.202;6.344;2023-08-08T08:12:04;3.70;;;2.23;;
9374;SDS011;4727;51.202;6.344;2023-08-08T08:14:30;3.67;;;3.00;;
9374;SDS011;4727;51.202;6.344;2023-08-08T08:16:55;2.80;;;2.60;;
9374;SDS011;4727;51.202;6.344;2023-08-08T08:19:21;4.50;;;2.87;;
9374;SDS011;4727;51.202;6.344;2023-08-08T08:21:46;5.10;;;2.77;;
9374;SDS011;4727;51.202;6.344;2023-08-08T08:24:12;3.83;;;2.27;;
9374;SDS011;4727;51.202;6.344;2023-08-08T08:26:38;5.00;;;2.23;;
9374;SDS011;4727;51.202;6.344;2023-08-08T08:29:03;3.03;;;2.73;;
9374;SDS011;4727;51.202;6.344;2023-08-08T08:31:29;2.23;;;2.13;;
9374;SDS011;4727;51.202;6.344;2023-08-08T08:33:54;3.47;;;2.47;;
9374;SDS011;4727;51.202;6.344;2023-08-08T08:36:20;3.57;;;2.67;;
9374;SDS011;4727;51.202;6.344;2023-08-08T08:38:46;3.20;;;2.97;;
9374;SDS011;4727;51.202;6.344;2023-08-08T08:41:13;3.53;;;2.47;;
9374;SDS011;4727;51.202;6.344;2023-08-08T08:43:42;2.87;;;2.60;;
9374;SDS011;4727;51.202;6.344;2023-08-08T08:46:08;3.20;;;2.87;;
9374;SDS011;4727;51.202;6.344;2023-08-08T08:48:36;2.70;;;2.50;;
9374;SDS011;4727;51.202;6.344;2023-08-08T08:51:02;3.33;;;2.67;;
9374;SDS011;4727;51.202;6.344;2023-08-08T08:53:28;3.80;;;2.90;;
9374;SDS011;4727;51.202;6.344;2023-08-08T08:55:53;3.60;;;2.57;;
9374;SDS011;4727;51.202;6.344;2023-08-08T08:58:22;5.50;;;3.20;;
9374;SDS011;4727;51.202;6.344;2023-08-08T09:00:49;3.40;;;2.80;;
9374;SDS011;4727;51.202;6.344;2023-08-08T09:03:16;2.30;;;2.10;;
9374;SDS011;4727;51.202;6.344;2023-08-08T09:05:41;2.87;;;2.67;;
9374;SDS011;4727;51.202;6.344;2023-08-08T09:08:08;2.87;;;2.57;;
9374;SDS011;4727;51.202;6.344;2023-08-08T09:10:34;3.00;;;2.73;;
9374;SDS011;4727;51.202;6.344;2023-08-08T09:13:00;2.73;;;2.57;;
9374;SDS011;4727;51.202;6.344;2023-08-08T09:15:29;3.63;;;2.50;;
9374;SDS011;4727;51.202;6.344;2023-08-08T09:17:58;2.50;;;2.30;;
9374;SDS011;4727;51.202;6.344;2023-08-08T09:20:25;3.20;;;2.53;;
9374;SDS011;4727;51.202;6.344;2023-08-08T09:22:53;2.83;;;2.27;;
9374;SDS011;4727;51.202;6.344;2023-08-08T09:25:19;2.77;;;1.90;;
9374;SDS011;4727;51.202;6.344;2023-08-08T09:27:44;2.43;;;2.23;;
9374;SDS011;4727;51.202;6.344;2023-08-08T09:30:10;2.43;;;2.33;;
9374;SDS011;4727;51.202;6.344;2023-08-08T09:32:36;13.13;;;2.57;;
9374;SDS011;4727;51.202;6.344;2023-08-08T09:35:02;3.60;;;2.20;;
9374;SDS011;4727;51.202;6.344;2023-08-08T09:37:34;2.53;;;2.33;;
9374;SDS011;4727;51.202;6.344;2023-08-08T09:40:01;2.77;;;2.13;;
9374;SDS011;4727;51.202;6.344;2023-08-08T09:42:30;2.00;;;1.90;;
9374;SDS011;4727;51.202;6.344;2023-08-08T09:44:56;3.03;;;2.53;;
9374;SDS011;4727;51.202;6.344;2023-08-08T09:47:22;2.00;;;1.87;;
9374;SDS011;4727;51.202;6.344;2023-08-08T09:49:49;2.27;;;2.03;;
9374;SDS011;4727;51.202;6.344;2023-08-08T09:52:15;1.90;;;1.77;;
9374;SDS011;4727;51.202;6.344;2023-08-08T09:54:41;1.90;;;1.70;;
9374;SDS011;4727;51.202;6.344;2023-08-08T09:57:07;3.63;;;2.30;;
9374;SDS011;4727;51.202;6.344;2023-08-08T09:59:33;5.97;;;2.90;;
9374;SDS011;4727;51.202;6.344;2023-08-08T10:02:00;2.80;;;2.27;;
9374;SDS011;4727;51.202;6.344;2023-08-08T10:04:26;2.33;;;2.23;;
9374;SDS011;4727;51.202;6.344;2023-08-08T10:06:52;3.30;;;2.57;;
9374;SDS011;4727;51.202;6.344;2023-08-08T10:09:18;1.93;;;1.83;;
9374;SDS011;4727;51.202;6.344;2023-08-08T10:11:44;2.23;;;2.03;;
9374;SDS011;4727;51.202;6.344;2023-08-08T10:14:10;3.00;;;2.80;;
9374;SDS011;4727;51.202;6.344;2023-08-08T10:16:37;3.77;;;2.40;;
9374;SDS011;4727;51.202;6.344;2023-08-08T10:19:03;3.47;;;2.30;;
9374;SDS011;4727;51.202;6.344;2023-08-08T10:21:43;2.43;;;2.33;;
9374;SDS011;4727;51.202;6.344;2023-08-08T10:24:09;2.90;;;2.70;;
9374;SDS011;4727;51.202;6.344;2023-08-08T10:26:51;2.37;;;2.27;;
9374;SDS011;4727;51.202;6.344;2023-08-08T10:29:25;4.20;;;2.53;;
9374;SDS011;4727;51.202;6.344;2023-08-08T10:31:52;3.70;;;2.83;;
9374;SDS011;4727;51.202;6.344;2023-08-08T10:34:26;2.73;;;2.50;;
9374;SDS011;4727;51.202;6.344;2023-08-08T10:37:13;2.90;;;2.63;;
9374;SDS011;4727;51.202;6.344;2023-08-08T10:42:19;3.03;;;2.50;;
9374;SDS011;4727;51.202;6.344;2023-08-08T10:44:57;4.40;;;2.23;;
9374;SDS011;4727;51.202;6.344;2023-08-08T10:47:24;2.93;;;2.47;;
9374;SDS011;4727;51.202;6.344;2023-08-08T10:50:04;2.13;;;1.90;;
9374;SDS011;4727;51.202;6.344;2023-08-08T10:57:58;2.33;;;2.00;;
9374;SDS011;4727;51.202;6.344;2023-08-08T11:00:28;3.67;;;1.93;;
9374;SDS011;4727;51.202;6.344;2023-08-08T11:02:59;1.60;;;1.50;;
9374;SDS011;4727;51.202;6.344;2023-08-08T11:05:28;2.57;;;2.37;;
9374;SDS011;4727;51.202;6.344;2023-08-08T11:07:54;1.90;;;1.80;;
9374;SDS011;4727;51.202;6.344;2023-08-08T11:10:20;3.20;;;2.47;;
9374;SDS011;4727;51.202;6.344;2023-08-08T11:13:00;2.80;;;2.50;;
9374;SDS011;4727;51.202;6.344;2023-08-08T11:15:28;3.17;;;2.40;;
9374;SDS011;4727;51.202;6.344;2023-08-08T11:17:54;2.43;;;2.23;;
9374;SDS011;4727;51.202;6.344;2023-08-08T11:20:21;3.93;;;2.10;;
9374;SDS011;4727;51.202;6.344;2023-08-08T11:22:54;3.20;;;2.00;;
9374;SDS011;4727;51.202;6.344;2023-08-08T11:25:30;2.87;;;2.40;;
9374;SDS011;4727;51.202;6.344;2023-08-08T11:27:56;3.47;;;2.40;;
9374;SDS011;4727;51.202;6.344;2023-08-08T11:30:24;2.23;;;2.03;;
9374;SDS011;4727;51.202;6.344;2023-08-08T11:32:54;2.60;;;2.40;;
9374;SDS011;4727;51.202;6.344;2023-08-08T11:35:23;1.97;;;1.87;;
9374;SDS011;4727;51.202;6.344;2023-08-08T11:37:49;1.87;;;1.77;;
9374;SDS011;4727;51.202;6.344;2023-08-08T11:40:17;2.67;;;2.37;;
9374;SDS011;4727;51.202;6.344;2023-08-08T11:42:43;2.97;;;2.67;;
9374;SDS011;4727;51.202;6.344;2023-08-08T11:45:12;2.60;;;2.40;;
9374;SDS011;4727;51.202;6.344;2023-08-08T11:47:38;2.10;;;1.90;;
9374;SDS011;4727;51.202;6.344;2023-08-08T11:50:05;2.10;;;2.00;;
9374;SDS011;4727;51.202;6.344;2023-08-08T11:52:34;2.97;;;2.57;;
9374;SDS011;4727;51.202;6.344;2023-08-08T11:55:04;2.83;;;2.27;;
9374;SDS011;4727;51.202;6.344;2023-08-08T11:57:31;2.33;;;2.17;;
9374;SDS011;4727;51.202;6.344;2023-08-08T11:59:58;2.83;;;2.30;;
9374;SDS011;4727;51.202;6.344;2023-08-08T12:02:25;4.37;;;3.13;;
9374;SDS011;4727;51.202;6.344;2023-08-08T12:04:52;3.57;;;2.40;;
9374;SDS011;4727;51.202;6.344;2023-08-08T12:07:18;4.53;;;2.47;;
9374;SDS011;4727;51.202;6.344;2023-08-08T12:09:46;4.67;;;2.47;;
9374;SDS011;4727;51.202;6.344;2023-08-08T12:12:12;2.93;;;2.43;;
9374;SDS011;4727;51.202;6.344;2023-08-08T12:14:39;3.73;;;2.43;;
9374;SDS011;4727;51.202;6.344;2023-08-08T12:17:05;4.53;;;2.10;;
9374;SDS011;4727;51.202;6.344;2023-08-08T12:19:30;2.67;;;2.43;;
9374;SDS011;4727;51.202;6.344;2023-08-08T12:21:56;3.57;;;2.87;;
9374;SDS011;4727;51.202;6.344;2023-08-08T12:24:22;2.57;;;2.10;;
9374;SDS011;4727;51.202;6.344;2023-08-08T12:26:47;2.37;;;2.27;;
9374;SDS011;4727;51.202;6.344;2023-08-08T12:29:13;3.43;;;2.73;;
9374;SDS011;4727;51.202;6.344;2023-08-08T12:31:39;2.53;;;1.97;;
9374;SDS011;4727;51.202;6.344;2023-08-08T12:34:05;2.40;;;2.20;;
9374;SDS011;4727;51.202;6.344;2023-08-08T12:36:30;3.10;;;2.37;;
9374;SDS011;4727;51.202;6.344;2023-08-08T12:38:56;1.77;;;1.67;;
9374;SDS011;4727;51.202;6.344;2023-08-08T12:41:22;2.53;;;2.33;;
9374;SDS011;4727;51.202;6.344;2023-08-08T12:43:49;3.60;;;2.30;;
9374;SDS011;4727;51.202;6.344;2023-08-08T12:46:15;2.87;;;2.60;;
9374;SDS011;4727;51.202;6.344;2023-08-08T12:48:41;2.63;;;2.43;;
9374;SDS011;4727;51.202;6.344;2023-08-08T12:51:08;2.93;;;2.47;;
9374;SDS011;4727;51.202;6.344;2023-08-08T12:53:33;3.53;;;2.67;;
9374;SDS011;4727;51.202;6.344;2023-08-08T12:55:59;2.50;;;2.30;;
9374;SDS011;4727;51.202;6.344;2023-08-08T12:58:25;2.27;;;2.17;;
9374;SDS011;4727;51.202;6.344;2023-08-08T13:00:51;3.50;;;2.60;;
9374;SDS011;4727;51.202;6.344;2023-08-08T13:03:16;2.40;;;2.30;;
9374;SDS011;4727;51.202;6.344;2023-08-08T13:05:42;2.77;;;2.57;;
9374;SDS011;4727;51.202;6.344;2023-08-08T13:08:08;2.93;;;2.60;;
9374;SDS011;4727;51.202;6.344;2023-08-08T13:10:33;3.10;;;2.57;;
9374;SDS011;4727;51.202;6.344;2023-08-08T13:13:00;2.80;;;2.60;;
9374;SDS011;4727;51.202;6.344;2023-08-08T13:15:26;5.07;;;3.07;;
9374;SDS011;4727;51.202;6.344;2023-08-08T13:17:51;2.87;;;2.67;;
9374;SDS011;4727;51.202;6.344;2023-08-08T13:20:17;3.30;;;2.20;;
9374;SDS011;4727;51.202;6.344;2023-08-08T13:22:42;2.50;;;2.30;;
9374;SDS011;4727;51.202;6.344;2023-08-08T13:25:08;2.70;;;2.50;;
9374;SDS011;4727;51.202;6.344;2023-08-08T13:27:34;3.33;;;2.67;;
9374;SDS011;4727;51.202;6.344;2023-08-08T13:29:59;2.83;;;2.10;;
9374;SDS011;4727;51.202;6.344;2023-08-08T13:32:25;3.57;;;2.50;;
9374;SDS011;4727;51.202;6.344;2023-08-08T13:34:50;2.33;;;2.10;;
9374;SDS011;4727;51.202;6.344;2023-08-08T13:37:16;2.70;;;2.07;;
9374;SDS011;4727;51.202;6.344;2023-08-08T13:39:41;3.80;;;1.90;;
9374;SDS011;4727;51.202;6.344;2023-08-08T13:42:08;2.57;;;2.10;;
9374;SDS011;4727;51.202;6.344;2023-08-08T13:44:34;1.80;;;1.70;;
9374;SDS011;4727;51.202;6.344;2023-08-08T13:46:59;1.90;;;1.80;;
9374;SDS011;4727;51.202;6.344;2023-08-08T13:49:25;2.03;;;1.63;;
9374;SDS011;4727;51.202;6.344;2023-08-08T13:51:52;2.37;;;2.17;;
9374;SDS011;4727;51.202;6.344;2023-08-08T13:54:18;1.53;;;1.43;;
9374;SDS011;4727;51.202;6.344;2023-08-08T13:56:44;2.20;;;2.00;;
9374;SDS011;4727;51.202;6.344;2023-08-08T13:59:10;2.20;;;1.90;;
9374;SDS011;4727;51.202;6.344;2023-08-08T14:01:35;2.57;;;2.00;;
9374;SDS011;4727;51.202;6.344;2023-08-08T14:04:01;1.90;;;1.80;;
9374;SDS011;4727;51.202;6.344;2023-08-08T14:06:27;2.47;;;1.63;;
9374;SDS011;4727;51.202;6.344;2023-08-08T14:08:53;2.33;;;1.70;;
9374;SDS011;4727;51.202;6.344;2023-08-08T14:11:19;1.47;;;1.30;;
9374;SDS011;4727;51.202;6.344;2023-08-08T14:13:45;4.10;;;1.60;;
9374;SDS011;4727;51.202;6.344;2023-08-08T14:16:10;2.10;;;2.00;;
9374;SDS011;4727;51.202;6.344;2023-08-08T14:18:36;1.47;;;1.37;;
9374;SDS011;4727;51.202;6.344;2023-08-08T14:21:02;2.70;;;1.60;;
9374;SDS011;4727;51.202;6.344;2023-08-08T14:23:29;1.53;;;1.43;;
9374;SDS011;4727;51.202;6.344;2023-08-08T14:25:55;1.53;;;1.30;;
9374;SDS011;4727;51.202;6.344;2023-08-08T14:28:20;1.43;;;1.43;;
9374;SDS011;4727;51.202;6.344;2023-08-08T14:30:46;2.13;;;1.50;;
9374;SDS011;4727;51.202;6.344;2023-08-08T14:33:14;2.30;;;1.23;;
9374;SDS011;4727;51.202;6.344;2023-08-08T14:35:41;1.87;;;1.77;;
9374;SDS011;4727;51.202;6.344;2023-08-08T14:38:07;1.70;;;1.60;;
9374;SDS011;4727;51.202;6.344;2023-08-08T14:40:32;1.87;;;1.77;;
9374;SDS011;4727;51.202;6.344;2023-08-08T14:42:59;1.50;;;1.40;;
9374;SDS011;4727;51.202;6.344;2023-08-08T14:45:26;1.33;;;1.30;;
9374;SDS011;4727;51.202;6.344;2023-08-08T14:47:52;1.47;;;1.40;;
9374;SDS011;4727;51.202;6.344;2023-08-08T14:50:17;1.37;;;1.33;;
9374;SDS011;4727;51.202;6.344;2023-08-08T14:52:43;1.87;;;1.33;;
9374;SDS011;4727;51.202;6.344;2023-08-08T14:55:21;1.40;;;1.30;;
9374;SDS011;4727;51.202;6.344;2023-08-08T14:57:47;1.73;;;0.93;;
9374;SDS011;4727;51.202;6.344;2023-08-08T15:00:16;1.00;;;1.00;;
9374;SDS011;4727;51.202;6.344;2023-08-08T15:02:42;1.23;;;1.23;;
9374;SDS011;4727;51.202;6.344;2023-08-08T15:05:08;1.63;;;1.53;;
9374;SDS011;4727;51.202;6.344;2023-08-08T15:07:33;1.30;;;1.30;;
9374;SDS011;4727;51.202;6.344;2023-08-08T15:09:59;2.57;;;1.60;;
9374;SDS011;4727;51.202;6.344;2023-08-08T15:12:24;2.20;;;1.80;;
9374;SDS011;4727;51.202;6.344;2023-08-08T15:14:50;1.37;;;1.37;;
9374;SDS011;4727;51.202;6.344;2023-08-08T15:17:16;1.60;;;1.50;;
9374;SDS011;4727;51.202;6.344;2023-08-08T15:19:42;1.33;;;1.33;;
9374;SDS011;4727;51.202;6.344;2023-08-08T15:22:08;1.47;;;1.47;;
9374;SDS011;4727;51.202;6.344;2023-08-08T15:24:33;1.57;;;1.50;;